sensor_id;sensor_type;location;lat;lon;timestamp;P1;durP1;ratioP1;P2;durP2;ratioP2
70270;SDS011;57680;54.292;18.598;2024-03-08T00:02:11;21.95;;;10.25;;
70270;SDS011;57680;54.292;18.598;2024-03-08T00:04:37;29.77;;;13.20;;
70270;SDS011;57680;54.292;18.598;2024-03-08T00:07:02;30.60;;;14.37;;
70270;SDS011;57680;54.292;18.598;2024-03-08T00:09:27;34.47;;;15.67;;
70270;SDS011;57680;54.292;18.598;2024-03-08T00:11:52;38.00;;;13.97;;
70270;SDS011;57680;54.292;18.598;2024-03-08T00:14:18;25.97;;;12.03;;
70270;SDS011;57680;54.292;18.598;2024-03-08T00:16:43;22.13;;;10.27;;
70270;SDS011;57680;54.292;18.598;2024-03-08T00:19:08;34.10;;;12.20;;
70270;SDS011;57680;54.292;18.598;2024-03-08T00:21:34;24.13;;;10.60;;
70270;SDS011;57680;54.292;18.598;2024-03-08T00:23:59;25.30;;;9.93;;
70270;SDS011;57680;54.292;18.598;2024-03-08T00:26:24;24.70;;;9.73;;
70270;SDS011;57680;54.292;18.598;2024-03-08T00:28:50;26.97;;;9.23;;
70270;SDS011;57680;54.292;18.598;2024-03-08T00:31:15;24.15;;;10.50;;
70270;SDS011;57680;54.292;18.598;2024-03-08T00:33:40;32.78;;;13.23;;
70270;SDS011;57680;54.292;18.598;2024-03-08T00:36:05;26.77;;;10.80;;
70270;SDS011;57680;54.292;18.598;2024-03-08T00:38:31;29.33;;;12.10;;
70270;SDS011;57680;54.292;18.598;2024-03-08T00:40:56;29.60;;;12.67;;
70270;SDS011;57680;54.292;18.598;2024-03-08T00:43:21;27.60;;;10.93;;
70270;SDS011;57680;54.292;18.598;2024-03-08T00:45:47;28.83;;;12.27;;
70270;SDS011;57680;54.292;18.598;2024-03-08T00:48:12;22.07;;;10.03;;
70270;SDS011;57680;54.292;18.598;2024-03-08T00:50:37;22.57;;;10.43;;
70270;SDS011;57680;54.292;18.598;2024-03-08T00:53:02;26.27;;;10.50;;
70270;SDS011;57680;54.292;18.598;2024-03-08T00:55:28;24.60;;;9.83;;
70270;SDS011;57680;54.292;18.598;2024-03-08T00:57:53;35.07;;;14.47;;
70270;SDS011;57680;54.292;18.598;2024-03-08T01:00:20;38.20;;;15.83;;
70270;SDS011;57680;54.292;18.598;2024-03-08T01:02:45;42.35;;;17.92;;
70270;SDS011;57680;54.292;18.598;2024-03-08T01:05:10;44.37;;;17.83;;
70270;SDS011;57680;54.292;18.598;2024-03-08T01:07:35;44.07;;;20.07;;
70270;SDS011;57680;54.292;18.598;2024-03-08T01:10:02;42.27;;;17.57;;
70270;SDS011;57680;54.292;18.598;2024-03-08T01:12:29;47.90;;;17.35;;
70270;SDS011;57680;54.292;18.598;2024-03-08T01:14:55;42.77;;;16.70;;
70270;SDS011;57680;54.292;18.598;2024-03-08T01:17:20;40.95;;;18.00;;
70270;SDS011;57680;54.292;18.598;2024-03-08T01:19:46;43.93;;;17.50;;
70270;SDS011;57680;54.292;18.598;2024-03-08T01:22:11;35.93;;;15.63;;
70270;SDS011;57680;54.292;18.598;2024-03-08T01:24:36;31.40;;;14.47;;
70270;SDS011;57680;54.292;18.598;2024-03-08T01:27:02;33.57;;;12.63;;
70270;SDS011;57680;54.292;18.598;2024-03-08T01:29:27;26.88;;;10.95;;
70270;SDS011;57680;54.292;18.598;2024-03-08T01:31:53;29.00;;;11.50;;
70270;SDS011;57680;54.292;18.598;2024-03-08T01:34:18;19.27;;;9.10;;
70270;SDS011;57680;54.292;18.598;2024-03-08T01:36:43;23.73;;;9.83;;
70270;SDS011;57680;54.292;18.598;2024-03-08T01:39:09;28.73;;;12.00;;
70270;SDS011;57680;54.292;18.598;2024-03-08T01:41:34;34.63;;;13.33;;
70270;SDS011;57680;54.292;18.598;2024-03-08T01:43:59;26.77;;;12.68;;
70270;SDS011;57680;54.292;18.598;2024-03-08T01:46:24;206.30;;;23.13;;
70270;SDS011;57680;54.292;18.598;2024-03-08T01:48:50;27.73;;;11.70;;
70270;SDS011;57680;54.292;18.598;2024-03-08T01:51:15;22.17;;;8.47;;
70270;SDS011;57680;54.292;18.598;2024-03-08T01:53:41;42.83;;;12.07;;
70270;SDS011;57680;54.292;18.598;2024-03-08T01:56:09;34.17;;;13.70;;
70270;SDS011;57680;54.292;18.598;2024-03-08T01:58:34;32.47;;;13.23;;
70270;SDS011;57680;54.292;18.598;2024-03-08T02:01:00;37.10;;;14.07;;
70270;SDS011;57680;54.292;18.598;2024-03-08T02:03:26;30.75;;;13.18;;
70270;SDS011;57680;54.292;18.598;2024-03-08T02:05:51;30.70;;;12.93;;
70270;SDS011;57680;54.292;18.598;2024-03-08T02:08:17;37.72;;;14.35;;
70270;SDS011;57680;54.292;18.598;2024-03-08T02:10:43;27.95;;;12.63;;
70270;SDS011;57680;54.292;18.598;2024-03-08T02:13:09;33.10;;;13.88;;
70270;SDS011;57680;54.292;18.598;2024-03-08T02:18:24;32.80;;;13.32;;
70270;SDS011;57680;54.292;18.598;2024-03-08T02:20:49;27.60;;;11.27;;
70270;SDS011;57680;54.292;18.598;2024-03-08T02:23:16;32.42;;;13.73;;
70270;SDS011;57680;54.292;18.598;2024-03-08T02:25:41;36.50;;;15.10;;
70270;SDS011;57680;54.292;18.598;2024-03-08T02:28:08;36.83;;;13.03;;
70270;SDS011;57680;54.292;18.598;2024-03-08T02:30:35;32.90;;;13.05;;
70270;SDS011;57680;54.292;18.598;2024-03-08T02:33:00;31.23;;;12.33;;
70270;SDS011;57680;54.292;18.598;2024-03-08T02:35:26;30.00;;;12.60;;
70270;SDS011;57680;54.292;18.598;2024-03-08T02:37:51;32.80;;;12.43;;
70270;SDS011;57680;54.292;18.598;2024-03-08T02:40:16;39.57;;;14.40;;
70270;SDS011;57680;54.292;18.598;2024-03-08T02:42:41;29.05;;;12.82;;
70270;SDS011;57680;54.292;18.598;2024-03-08T02:45:07;34.00;;;13.83;;
70270;SDS011;57680;54.292;18.598;2024-03-08T02:47:32;31.40;;;13.13;;
70270;SDS011;57680;54.292;18.598;2024-03-08T02:49:58;39.67;;;15.60;;
70270;SDS011;57680;54.292;18.598;2024-03-08T02:52:23;33.23;;;13.50;;
70270;SDS011;57680;54.292;18.598;2024-03-08T02:54:48;27.17;;;11.63;;
70270;SDS011;57680;54.292;18.598;2024-03-08T02:57:14;25.35;;;9.80;;
70270;SDS011;57680;54.292;18.598;2024-03-08T02:59:39;24.38;;;10.82;;
70270;SDS011;57680;54.292;18.598;2024-03-08T03:02:04;23.73;;;9.90;;
70270;SDS011;57680;54.292;18.598;2024-03-08T03:04:29;19.23;;;7.83;;
70270;SDS011;57680;54.292;18.598;2024-03-08T03:06:55;26.83;;;9.70;;
70270;SDS011;57680;54.292;18.598;2024-03-08T03:09:20;19.67;;;8.10;;
70270;SDS011;57680;54.292;18.598;2024-03-08T03:11:45;25.37;;;10.33;;
70270;SDS011;57680;54.292;18.598;2024-03-08T03:14:10;24.00;;;8.63;;
70270;SDS011;57680;54.292;18.598;2024-03-08T03:16:36;19.50;;;7.67;;
70270;SDS011;57680;54.292;18.598;2024-03-08T03:19:01;23.37;;;9.20;;
70270;SDS011;57680;54.292;18.598;2024-03-08T03:21:28;27.53;;;9.40;;
70270;SDS011;57680;54.292;18.598;2024-03-08T03:23:53;23.00;;;9.38;;
70270;SDS011;57680;54.292;18.598;2024-03-08T03:26:18;25.60;;;10.20;;
70270;SDS011;57680;54.292;18.598;2024-03-08T03:28:44;24.77;;;9.00;;
70270;SDS011;57680;54.292;18.598;2024-03-08T03:31:09;22.20;;;10.40;;
70270;SDS011;57680;54.292;18.598;2024-03-08T03:33:34;22.03;;;8.77;;
70270;SDS011;57680;54.292;18.598;2024-03-08T03:36:00;24.50;;;9.63;;
70270;SDS011;57680;54.292;18.598;2024-03-08T03:38:25;30.63;;;12.17;;
70270;SDS011;57680;54.292;18.598;2024-03-08T03:40:50;21.07;;;9.67;;
70270;SDS011;57680;54.292;18.598;2024-03-08T03:43:15;28.37;;;9.77;;
70270;SDS011;57680;54.292;18.598;2024-03-08T03:45:41;26.83;;;10.57;;
70270;SDS011;57680;54.292;18.598;2024-03-08T03:48:06;23.93;;;9.13;;
70270;SDS011;57680;54.292;18.598;2024-03-08T03:50:32;27.60;;;10.60;;
70270;SDS011;57680;54.292;18.598;2024-03-08T03:52:57;26.57;;;11.53;;
70270;SDS011;57680;54.292;18.598;2024-03-08T03:55:23;24.65;;;9.98;;
70270;SDS011;57680;54.292;18.598;2024-03-08T03:57:48;26.38;;;10.98;;
70270;SDS011;57680;54.292;18.598;2024-03-08T04:00:13;20.10;;;9.50;;
70270;SDS011;57680;54.292;18.598;2024-03-08T04:02:39;28.83;;;11.47;;
70270;SDS011;57680;54.292;18.598;2024-03-08T04:05:05;23.67;;;11.57;;
70270;SDS011;57680;54.292;18.598;2024-03-08T04:07:32;20.23;;;7.75;;
70270;SDS011;57680;54.292;18.598;2024-03-08T04:09:57;33.27;;;12.93;;
70270;SDS011;57680;54.292;18.598;2024-03-08T04:12:22;19.80;;;10.07;;
70270;SDS011;57680;54.292;18.598;2024-03-08T04:14:48;27.35;;;10.68;;
70270;SDS011;57680;54.292;18.598;2024-03-08T04:17:13;22.57;;;9.80;;
70270;SDS011;57680;54.292;18.598;2024-03-08T04:19:38;21.87;;;8.93;;
70270;SDS011;57680;54.292;18.598;2024-03-08T04:22:05;31.67;;;11.50;;
70270;SDS011;57680;54.292;18.598;2024-03-08T04:24:30;32.83;;;11.23;;
70270;SDS011;57680;54.292;18.598;2024-03-08T04:26:56;26.53;;;10.17;;
70270;SDS011;57680;54.292;18.598;2024-03-08T04:29:21;27.70;;;10.23;;
70270;SDS011;57680;54.292;18.598;2024-03-08T04:31:46;23.07;;;9.47;;
70270;SDS011;57680;54.292;18.598;2024-03-08T04:34:11;31.47;;;11.10;;
70270;SDS011;57680;54.292;18.598;2024-03-08T04:36:37;29.13;;;10.37;;
70270;SDS011;57680;54.292;18.598;2024-03-08T04:39:02;28.00;;;12.00;;
70270;SDS011;57680;54.292;18.598;2024-03-08T04:41:27;34.08;;;12.15;;
70270;SDS011;57680;54.292;18.598;2024-03-08T04:43:53;29.20;;;10.73;;
70270;SDS011;57680;54.292;18.598;2024-03-08T04:46:18;32.57;;;12.17;;
70270;SDS011;57680;54.292;18.598;2024-03-08T04:48:44;28.30;;;11.63;;
70270;SDS011;57680;54.292;18.598;2024-03-08T04:51:09;34.93;;;13.23;;
70270;SDS011;57680;54.292;18.598;2024-03-08T04:53:35;34.20;;;11.55;;
70270;SDS011;57680;54.292;18.598;2024-03-08T04:56:00;31.63;;;11.93;;
70270;SDS011;57680;54.292;18.598;2024-03-08T04:58:25;32.70;;;12.50;;
70270;SDS011;57680;54.292;18.598;2024-03-08T05:00:50;29.90;;;10.87;;
70270;SDS011;57680;54.292;18.598;2024-03-08T05:03:16;26.07;;;10.83;;
70270;SDS011;57680;54.292;18.598;2024-03-08T05:05:41;25.80;;;9.50;;
70270;SDS011;57680;54.292;18.598;2024-03-08T05:08:06;204.43;;;19.73;;
70270;SDS011;57680;54.292;18.598;2024-03-08T05:10:31;31.53;;;11.17;;
70270;SDS011;57680;54.292;18.598;2024-03-08T05:12:57;33.83;;;12.60;;
70270;SDS011;57680;54.292;18.598;2024-03-08T05:15:22;39.90;;;13.20;;
70270;SDS011;57680;54.292;18.598;2024-03-08T05:17:47;38.40;;;14.17;;
70270;SDS011;57680;54.292;18.598;2024-03-08T05:20:12;37.70;;;13.30;;
70270;SDS011;57680;54.292;18.598;2024-03-08T05:22:38;37.90;;;13.60;;
70270;SDS011;57680;54.292;18.598;2024-03-08T05:25:03;34.33;;;12.37;;
70270;SDS011;57680;54.292;18.598;2024-03-08T05:27:29;35.27;;;12.33;;
70270;SDS011;57680;54.292;18.598;2024-03-08T05:29:54;21.43;;;9.43;;
70270;SDS011;57680;54.292;18.598;2024-03-08T05:32:19;23.70;;;8.83;;
70270;SDS011;57680;54.292;18.598;2024-03-08T05:34:44;23.43;;;8.40;;
70270;SDS011;57680;54.292;18.598;2024-03-08T05:37:10;20.23;;;8.00;;
70270;SDS011;57680;54.292;18.598;2024-03-08T05:39:35;18.03;;;6.77;;
70270;SDS011;57680;54.292;18.598;2024-03-08T05:42:00;24.60;;;7.87;;
70270;SDS011;57680;54.292;18.598;2024-03-08T05:44:26;26.33;;;9.47;;
70270;SDS011;57680;54.292;18.598;2024-03-08T05:46:51;19.15;;;7.20;;
70270;SDS011;57680;54.292;18.598;2024-03-08T05:49:16;18.27;;;7.60;;
70270;SDS011;57680;54.292;18.598;2024-03-08T05:51:41;16.37;;;6.23;;
70270;SDS011;57680;54.292;18.598;2024-03-08T05:54:08;16.53;;;5.20;;
70270;SDS011;57680;54.292;18.598;2024-03-08T05:56:34;14.02;;;5.75;;
70270;SDS011;57680;54.292;18.598;2024-03-08T05:59:00;20.77;;;6.73;;
70270;SDS011;57680;54.292;18.598;2024-03-08T06:01:25;17.47;;;8.10;;
70270;SDS011;57680;54.292;18.598;2024-03-08T06:03:52;23.65;;;8.07;;
70270;SDS011;57680;54.292;18.598;2024-03-08T06:06:17;16.38;;;5.60;;
70270;SDS011;57680;54.292;18.598;2024-03-08T06:08:43;18.03;;;6.87;;
70270;SDS011;57680;54.292;18.598;2024-03-08T06:11:08;15.83;;;5.70;;
70270;SDS011;57680;54.292;18.598;2024-03-08T06:13:34;16.07;;;6.13;;
70270;SDS011;57680;54.292;18.598;2024-03-08T06:16:00;18.00;;;7.77;;
70270;SDS011;57680;54.292;18.598;2024-03-08T06:18:26;16.10;;;6.43;;
70270;SDS011;57680;54.292;18.598;2024-03-08T06:20:52;23.77;;;8.60;;
70270;SDS011;57680;54.292;18.598;2024-03-08T06:23:17;22.73;;;8.73;;
70270;SDS011;57680;54.292;18.598;2024-03-08T06:25:42;34.27;;;7.83;;
70270;SDS011;57680;54.292;18.598;2024-03-08T06:28:08;22.33;;;8.57;;
70270;SDS011;57680;54.292;18.598;2024-03-08T06:30:34;21.83;;;5.23;;
70270;SDS011;57680;54.292;18.598;2024-03-08T06:32:59;28.00;;;7.70;;
70270;SDS011;57680;54.292;18.598;2024-03-08T06:35:24;19.87;;;6.70;;
70270;SDS011;57680;54.292;18.598;2024-03-08T06:37:49;26.00;;;8.00;;
70270;SDS011;57680;54.292;18.598;2024-03-08T06:40:15;22.67;;;8.17;;
70270;SDS011;57680;54.292;18.598;2024-03-08T06:42:40;23.77;;;7.67;;
70270;SDS011;57680;54.292;18.598;2024-03-08T06:45:06;21.45;;;6.90;;
70270;SDS011;57680;54.292;18.598;2024-03-08T06:47:32;18.50;;;6.53;;
70270;SDS011;57680;54.292;18.598;2024-03-08T06:49:57;22.20;;;7.57;;
70270;SDS011;57680;54.292;18.598;2024-03-08T06:52:22;28.60;;;9.52;;
70270;SDS011;57680;54.292;18.598;2024-03-08T06:54:48;26.73;;;8.93;;
70270;SDS011;57680;54.292;18.598;2024-03-08T06:57:13;23.57;;;8.80;;
70270;SDS011;57680;54.292;18.598;2024-03-08T06:59:38;25.47;;;8.13;;
70270;SDS011;57680;54.292;18.598;2024-03-08T07:02:04;28.07;;;10.40;;
70270;SDS011;57680;54.292;18.598;2024-03-08T07:04:29;22.77;;;7.63;;
70270;SDS011;57680;54.292;18.598;2024-03-08T07:06:55;21.03;;;6.60;;
70270;SDS011;57680;54.292;18.598;2024-03-08T07:09:23;27.23;;;9.40;;
70270;SDS011;57680;54.292;18.598;2024-03-08T07:11:49;20.45;;;6.97;;
70270;SDS011;57680;54.292;18.598;2024-03-08T07:14:14;28.80;;;10.17;;
70270;SDS011;57680;54.292;18.598;2024-03-08T07:16:39;19.67;;;6.77;;
70270;SDS011;57680;54.292;18.598;2024-03-08T07:19:05;29.73;;;9.10;;
70270;SDS011;57680;54.292;18.598;2024-03-08T07:21:30;15.83;;;7.13;;
70270;SDS011;57680;54.292;18.598;2024-03-08T07:23:56;21.75;;;9.25;;
70270;SDS011;57680;54.292;18.598;2024-03-08T07:26:21;26.03;;;8.53;;
70270;SDS011;57680;54.292;18.598;2024-03-08T07:28:46;21.37;;;8.73;;
70270;SDS011;57680;54.292;18.598;2024-03-08T07:31:12;23.37;;;9.73;;
70270;SDS011;57680;54.292;18.598;2024-03-08T07:33:37;14.33;;;6.27;;
70270;SDS011;57680;54.292;18.598;2024-03-08T07:36:02;23.60;;;9.60;;
70270;SDS011;57680;54.292;18.598;2024-03-08T07:38:28;23.77;;;9.33;;
70270;SDS011;57680;54.292;18.598;2024-03-08T07:40:53;21.73;;;9.00;;
70270;SDS011;57680;54.292;18.598;2024-03-08T07:43:18;16.93;;;7.57;;
70270;SDS011;57680;54.292;18.598;2024-03-08T07:45:44;20.97;;;8.13;;
70270;SDS011;57680;54.292;18.598;2024-03-08T07:48:09;18.83;;;8.33;;
70270;SDS011;57680;54.292;18.598;2024-03-08T07:50:35;16.10;;;6.83;;
70270;SDS011;57680;54.292;18.598;2024-03-08T07:53:02;25.45;;;8.95;;
70270;SDS011;57680;54.292;18.598;2024-03-08T07:55:27;23.07;;;8.10;;
70270;SDS011;57680;54.292;18.598;2024-03-08T07:57:52;22.10;;;9.53;;
70270;SDS011;57680;54.292;18.598;2024-03-08T08:00:18;20.93;;;8.47;;
70270;SDS011;57680;54.292;18.598;2024-03-08T08:02:46;26.73;;;10.20;;
70270;SDS011;57680;54.292;18.598;2024-03-08T08:05:11;25.35;;;10.35;;
70270;SDS011;57680;54.292;18.598;2024-03-08T08:07:37;24.83;;;9.77;;
70270;SDS011;57680;54.292;18.598;2024-03-08T08:10:02;25.13;;;9.20;;
70270;SDS011;57680;54.292;18.598;2024-03-08T08:12:28;24.93;;;10.23;;
70270;SDS011;57680;54.292;18.598;2024-03-08T08:14:53;27.63;;;10.73;;
70270;SDS011;57680;54.292;18.598;2024-03-08T08:17:18;26.63;;;10.73;;
70270;SDS011;57680;54.292;18.598;2024-03-08T08:19:44;23.97;;;9.97;;
70270;SDS011;57680;54.292;18.598;2024-03-08T08:22:09;24.57;;;9.27;;
70270;SDS011;57680;54.292;18.598;2024-03-08T08:24:34;23.43;;;8.57;;
70270;SDS011;57680;54.292;18.598;2024-03-08T08:27:00;19.67;;;7.85;;
70270;SDS011;57680;54.292;18.598;2024-03-08T08:29:25;26.10;;;9.03;;
70270;SDS011;57680;54.292;18.598;2024-03-08T08:31:50;22.40;;;8.83;;
70270;SDS011;57680;54.292;18.598;2024-03-08T08:34:16;22.03;;;8.40;;
70270;SDS011;57680;54.292;18.598;2024-03-08T08:36:41;22.33;;;9.00;;
70270;SDS011;57680;54.292;18.598;2024-03-08T08:39:07;22.93;;;9.23;;
70270;SDS011;57680;54.292;18.598;2024-03-08T08:41:32;24.90;;;9.47;;
70270;SDS011;57680;54.292;18.598;2024-03-08T08:43:57;25.80;;;8.53;;
70270;SDS011;57680;54.292;18.598;2024-03-08T08:46:23;20.80;;;8.57;;
70270;SDS011;57680;54.292;18.598;2024-03-08T08:48:48;23.97;;;8.47;;
70270;SDS011;57680;54.292;18.598;2024-03-08T08:51:13;22.00;;;8.03;;
70270;SDS011;57680;54.292;18.598;2024-03-08T08:53:39;20.53;;;8.30;;
70270;SDS011;57680;54.292;18.598;2024-03-08T08:56:05;26.85;;;8.23;;
70270;SDS011;57680;54.292;18.598;2024-03-08T08:58:31;22.45;;;8.90;;
70270;SDS011;57680;54.292;18.598;2024-03-08T09:00:56;23.93;;;8.70;;
70270;SDS011;57680;54.292;18.598;2024-03-08T09:03:21;22.03;;;9.13;;
70270;SDS011;57680;54.292;18.598;2024-03-08T09:05:47;21.47;;;8.63;;
70270;SDS011;57680;54.292;18.598;2024-03-08T09:08:12;20.37;;;7.83;;
70270;SDS011;57680;54.292;18.598;2024-03-08T09:10:37;22.87;;;10.10;;
70270;SDS011;57680;54.292;18.598;2024-03-08T09:13:03;22.73;;;8.00;;
70270;SDS011;57680;54.292;18.598;2024-03-08T09:15:28;24.27;;;8.37;;
70270;SDS011;57680;54.292;18.598;2024-03-08T09:17:53;21.87;;;8.00;;
70270;SDS011;57680;54.292;18.598;2024-03-08T09:20:18;21.80;;;8.20;;
70270;SDS011;57680;54.292;18.598;2024-03-08T09:22:44;24.93;;;7.90;;
70270;SDS011;57680;54.292;18.598;2024-03-08T09:25:09;22.53;;;9.27;;
70270;SDS011;57680;54.292;18.598;2024-03-08T09:27:34;18.20;;;7.73;;
70270;SDS011;57680;54.292;18.598;2024-03-08T09:30:00;19.53;;;7.93;;
70270;SDS011;57680;54.292;18.598;2024-03-08T09:32:25;20.60;;;7.57;;
70270;SDS011;57680;54.292;18.598;2024-03-08T09:34:50;23.70;;;7.63;;
70270;SDS011;57680;54.292;18.598;2024-03-08T09:37:16;21.67;;;7.93;;
70270;SDS011;57680;54.292;18.598;2024-03-08T09:39:41;20.87;;;7.33;;
70270;SDS011;57680;54.292;18.598;2024-03-08T09:42:06;22.33;;;8.10;;
70270;SDS011;57680;54.292;18.598;2024-03-08T09:44:31;25.43;;;8.07;;
70270;SDS011;57680;54.292;18.598;2024-03-08T09:47:00;18.07;;;7.63;;
70270;SDS011;57680;54.292;18.598;2024-03-08T09:49:25;18.52;;;7.22;;
70270;SDS011;57680;54.292;18.598;2024-03-08T09:51:50;16.87;;;6.83;;
70270;SDS011;57680;54.292;18.598;2024-03-08T09:54:16;24.57;;;8.40;;
70270;SDS011;57680;54.292;18.598;2024-03-08T09:56:41;23.50;;;8.48;;
70270;SDS011;57680;54.292;18.598;2024-03-08T09:59:08;22.83;;;7.60;;
70270;SDS011;57680;54.292;18.598;2024-03-08T10:01:33;18.77;;;7.67;;
70270;SDS011;57680;54.292;18.598;2024-03-08T10:03:59;19.77;;;7.70;;
70270;SDS011;57680;54.292;18.598;2024-03-08T10:06:24;18.30;;;7.53;;
70270;SDS011;57680;54.292;18.598;2024-03-08T10:08:50;18.90;;;7.17;;
70270;SDS011;57680;54.292;18.598;2024-03-08T10:11:15;15.10;;;5.97;;
70270;SDS011;57680;54.292;18.598;2024-03-08T10:13:41;18.50;;;6.77;;
70270;SDS011;57680;54.292;18.598;2024-03-08T10:16:06;15.70;;;6.53;;
70270;SDS011;57680;54.292;18.598;2024-03-08T10:18:32;21.23;;;7.13;;
70270;SDS011;57680;54.292;18.598;2024-03-08T10:21:07;16.33;;;6.33;;
70270;SDS011;57680;54.292;18.598;2024-03-08T10:23:34;18.35;;;6.60;;
70270;SDS011;57680;54.292;18.598;2024-03-08T10:26:13;20.30;;;6.63;;
70270;SDS011;57680;54.292;18.598;2024-03-08T10:28:39;17.20;;;6.47;;
70270;SDS011;57680;54.292;18.598;2024-03-08T10:31:04;18.90;;;6.33;;
70270;SDS011;57680;54.292;18.598;2024-03-08T10:33:29;17.17;;;6.17;;
70270;SDS011;57680;54.292;18.598;2024-03-08T10:35:55;14.87;;;4.83;;
70270;SDS011;57680;54.292;18.598;2024-03-08T10:38:20;12.88;;;4.40;;
70270;SDS011;57680;54.292;18.598;2024-03-08T10:40:48;13.40;;;5.33;;
70270;SDS011;57680;54.292;18.598;2024-03-08T10:43:19;12.13;;;4.22;;
70270;SDS011;57680;54.292;18.598;2024-03-08T10:45:49;11.88;;;4.15;;
70270;SDS011;57680;54.292;18.598;2024-03-08T10:50:52;13.32;;;4.47;;
70270;SDS011;57680;54.292;18.598;2024-03-08T10:53:18;12.20;;;4.10;;
70270;SDS011;57680;54.292;18.598;2024-03-08T10:55:44;14.23;;;4.85;;
70270;SDS011;57680;54.292;18.598;2024-03-08T10:58:10;12.35;;;4.57;;
70270;SDS011;57680;54.292;18.598;2024-03-08T11:00:35;12.27;;;4.10;;
70270;SDS011;57680;54.292;18.598;2024-03-08T11:03:01;12.93;;;4.27;;
70270;SDS011;57680;54.292;18.598;2024-03-08T11:05:39;12.70;;;3.90;;
70270;SDS011;57680;54.292;18.598;2024-03-08T11:08:06;10.40;;;3.70;;
70270;SDS011;57680;54.292;18.598;2024-03-08T11:10:54;11.73;;;3.97;;
70270;SDS011;57680;54.292;18.598;2024-03-08T11:13:35;10.20;;;3.22;;
70270;SDS011;57680;54.292;18.598;2024-03-08T11:16:07;10.27;;;3.70;;
70270;SDS011;57680;54.292;18.598;2024-03-08T11:18:35;12.82;;;4.40;;
70270;SDS011;57680;54.292;18.598;2024-03-08T11:21:04;12.70;;;4.17;;
70270;SDS011;57680;54.292;18.598;2024-03-08T11:23:29;10.98;;;3.95;;
70270;SDS011;57680;54.292;18.598;2024-03-08T11:25:55;11.07;;;4.10;;
70270;SDS011;57680;54.292;18.598;2024-03-08T11:28:21;11.77;;;4.40;;
70270;SDS011;57680;54.292;18.598;2024-03-08T11:33:22;14.18;;;4.95;;
70270;SDS011;57680;54.292;18.598;2024-03-08T11:35:48;11.30;;;4.23;;
70270;SDS011;57680;54.292;18.598;2024-03-08T11:38:13;15.27;;;5.40;;
70270;SDS011;57680;54.292;18.598;2024-03-08T11:40:39;13.48;;;4.80;;
70270;SDS011;57680;54.292;18.598;2024-03-08T11:43:04;14.03;;;4.60;;
70270;SDS011;57680;54.292;18.598;2024-03-08T11:45:29;15.03;;;5.80;;
70270;SDS011;57680;54.292;18.598;2024-03-08T11:47:55;14.30;;;6.13;;
70270;SDS011;57680;54.292;18.598;2024-03-08T11:50:20;12.47;;;4.93;;
70270;SDS011;57680;54.292;18.598;2024-03-08T11:52:45;14.87;;;5.00;;
70270;SDS011;57680;54.292;18.598;2024-03-08T11:55:10;15.07;;;5.50;;
70270;SDS011;57680;54.292;18.598;2024-03-08T11:57:36;15.55;;;6.45;;
70270;SDS011;57680;54.292;18.598;2024-03-08T12:00:02;16.37;;;6.43;;
70270;SDS011;57680;54.292;18.598;2024-03-08T12:02:27;15.13;;;6.23;;
70270;SDS011;57680;54.292;18.598;2024-03-08T12:04:56;16.43;;;6.73;;
70270;SDS011;57680;54.292;18.598;2024-03-08T12:07:22;25.33;;;9.43;;
70270;SDS011;57680;54.292;18.598;2024-03-08T12:12:43;16.48;;;6.35;;
70270;SDS011;57680;54.292;18.598;2024-03-08T12:15:12;17.80;;;6.53;;
70270;SDS011;57680;54.292;18.598;2024-03-08T12:17:38;18.15;;;7.03;;
70270;SDS011;57680;54.292;18.598;2024-03-08T12:20:19;10.47;;;4.10;;
70270;SDS011;57680;54.292;18.598;2024-03-08T12:22:46;15.52;;;6.05;;
70270;SDS011;57680;54.292;18.598;2024-03-08T12:25:11;16.03;;;6.57;;
70270;SDS011;57680;54.292;18.598;2024-03-08T12:27:38;17.80;;;6.13;;
70270;SDS011;57680;54.292;18.598;2024-03-08T12:30:23;15.15;;;6.57;;
70270;SDS011;57680;54.292;18.598;2024-03-08T12:35:22;14.38;;;6.20;;
70270;SDS011;57680;54.292;18.598;2024-03-08T12:37:50;16.97;;;6.27;;
70270;SDS011;57680;54.292;18.598;2024-03-08T12:40:17;17.23;;;6.45;;
70270;SDS011;57680;54.292;18.598;2024-03-08T12:42:45;16.90;;;6.80;;
70270;SDS011;57680;54.292;18.598;2024-03-08T12:45:10;18.65;;;6.13;;
70270;SDS011;57680;54.292;18.598;2024-03-08T12:47:36;14.27;;;6.23;;
70270;SDS011;57680;54.292;18.598;2024-03-08T12:50:02;14.50;;;5.63;;
70270;SDS011;57680;54.292;18.598;2024-03-08T12:52:28;15.50;;;6.72;;
70270;SDS011;57680;54.292;18.598;2024-03-08T12:54:53;19.13;;;6.70;;
70270;SDS011;57680;54.292;18.598;2024-03-08T12:57:19;16.70;;;6.03;;
70270;SDS011;57680;54.292;18.598;2024-03-08T12:59:44;18.50;;;6.80;;
70270;SDS011;57680;54.292;18.598;2024-03-08T13:02:09;15.32;;;6.35;;
70270;SDS011;57680;54.292;18.598;2024-03-08T13:04:34;18.93;;;7.10;;
70270;SDS011;57680;54.292;18.598;2024-03-08T13:07:00;17.23;;;6.70;;
70270;SDS011;57680;54.292;18.598;2024-03-08T13:09:25;15.40;;;5.93;;
70270;SDS011;57680;54.292;18.598;2024-03-08T13:11:50;16.27;;;6.90;;
70270;SDS011;57680;54.292;18.598;2024-03-08T13:14:16;15.63;;;6.10;;
70270;SDS011;57680;54.292;18.598;2024-03-08T13:16:41;15.57;;;6.17;;
70270;SDS011;57680;54.292;18.598;2024-03-08T13:19:06;18.23;;;6.87;;
70270;SDS011;57680;54.292;18.598;2024-03-08T13:21:31;21.77;;;6.87;;
70270;SDS011;57680;54.292;18.598;2024-03-08T13:23:57;13.70;;;6.33;;
70270;SDS011;57680;54.292;18.598;2024-03-08T13:26:22;19.10;;;5.97;;
70270;SDS011;57680;54.292;18.598;2024-03-08T13:28:48;18.20;;;6.53;;
70270;SDS011;57680;54.292;18.598;2024-03-08T13:31:14;17.48;;;6.30;;
70270;SDS011;57680;54.292;18.598;2024-03-08T13:33:40;17.00;;;5.90;;
70270;SDS011;57680;54.292;18.598;2024-03-08T13:36:05;18.08;;;6.55;;
70270;SDS011;57680;54.292;18.598;2024-03-08T13:38:31;24.17;;;7.87;;
70270;SDS011;57680;54.292;18.598;2024-03-08T13:40:59;21.10;;;8.25;;
70270;SDS011;57680;54.292;18.598;2024-03-08T13:43:24;21.00;;;7.80;;
70270;SDS011;57680;54.292;18.598;2024-03-08T13:45:50;18.50;;;7.30;;
70270;SDS011;57680;54.292;18.598;2024-03-08T13:48:15;18.00;;;7.50;;
70270;SDS011;57680;54.292;18.598;2024-03-08T13:50:40;20.90;;;8.10;;
70270;SDS011;57680;54.292;18.598;2024-03-08T13:53:06;23.77;;;8.63;;
70270;SDS011;57680;54.292;18.598;2024-03-08T13:55:31;23.73;;;8.63;;
70270;SDS011;57680;54.292;18.598;2024-03-08T13:57:56;22.60;;;8.27;;
70270;SDS011;57680;54.292;18.598;2024-03-08T14:00:22;26.92;;;9.27;;
70270;SDS011;57680;54.292;18.598;2024-03-08T14:02:47;21.87;;;8.13;;
70270;SDS011;57680;54.292;18.598;2024-03-08T14:05:13;24.07;;;8.77;;
70270;SDS011;57680;54.292;18.598;2024-03-08T14:07:38;20.50;;;8.00;;
70270;SDS011;57680;54.292;18.598;2024-03-08T14:10:03;20.43;;;7.30;;
70270;SDS011;57680;54.292;18.598;2024-03-08T14:12:29;16.83;;;6.60;;
70270;SDS011;57680;54.292;18.598;2024-03-08T14:14:54;16.20;;;6.53;;
70270;SDS011;57680;54.292;18.598;2024-03-08T14:17:20;16.33;;;7.37;;
70270;SDS011;57680;54.292;18.598;2024-03-08T14:19:46;23.55;;;7.63;;
70270;SDS011;57680;54.292;18.598;2024-03-08T14:22:11;17.10;;;6.73;;
70270;SDS011;57680;54.292;18.598;2024-03-08T14:24:36;20.67;;;6.70;;